Terminal Aerodrome Forecast
Issued by NWS

Home | Current Version | Previous Version | Graphics & Text | Print | Product List | Glossary On
Versions: 1 2 3 4 5 6 7 8 9 10 11 12 13 14 15 16 17 18 19 20 21 22 23 24 25 26 27 28 29 30 31 32 33 34 35
000
FTUS43 KLOT 301724
TAFDPA
TAF
KDPA 301724Z 3018/3118 02012G18KT 6SM -RA BR BKN005 OVC015
     FM302200 02020G30KT 3SM RA BR BKN008 OVC015 WS015/04050KT
     FM310100 02019G29KT 6SM -RA BKN005 OVC010 WS018/04050KT
     FM310400 02018G28KT P6SM BKN015 WS020/05045KT
     FM311200 03017G27KT P6SM OVC025=

USA.gov is the U.S. government's official web portal to all federal, state and local government web resources and services.